sensor_id;sensor_type;location;lat;lon;timestamp;P1;durP1;ratioP1;P2;durP2;ratioP2
4867;SDS011;2448;48.086;10.862;2023-08-21T00:00:02;5.40;;;4.83;;
4867;SDS011;2448;48.086;10.862;2023-08-21T00:02:29;11.40;;;4.90;;
4867;SDS011;2448;48.086;10.862;2023-08-21T00:04:54;5.80;;;4.67;;
4867;SDS011;2448;48.086;10.862;2023-08-21T00:07:20;5.50;;;4.83;;
4867;SDS011;2448;48.086;10.862;2023-08-21T00:09:45;4.50;;;4.10;;
4867;SDS011;2448;48.086;10.862;2023-08-21T00:12:11;5.87;;;4.90;;
4867;SDS011;2448;48.086;10.862;2023-08-21T00:14:36;21.03;;;4.47;;
4867;SDS011;2448;48.086;10.862;2023-08-21T00:17:02;5.30;;;4.20;;
4867;SDS011;2448;48.086;10.862;2023-08-21T00:19:28;7.30;;;4.57;;
4867;SDS011;2448;48.086;10.862;2023-08-21T00:21:53;8.13;;;4.83;;
4867;SDS011;2448;48.086;10.862;2023-08-21T00:24:19;10.60;;;5.20;;
4867;SDS011;2448;48.086;10.862;2023-08-21T00:26:44;7.33;;;4.90;;
4867;SDS011;2448;48.086;10.862;2023-08-21T00:29:10;7.87;;;4.50;;
4867;SDS011;2448;48.086;10.862;2023-08-21T00:31:35;7.70;;;4.30;;
4867;SDS011;2448;48.086;10.862;2023-08-21T00:34:00;5.50;;;4.57;;
4867;SDS011;2448;48.086;10.862;2023-08-21T00:36:26;5.23;;;4.67;;
4867;SDS011;2448;48.086;10.862;2023-08-21T00:38:51;8.97;;;5.03;;
4867;SDS011;2448;48.086;10.862;2023-08-21T00:41:16;5.50;;;4.20;;
4867;SDS011;2448;48.086;10.862;2023-08-21T00:43:42;5.87;;;4.00;;
4867;SDS011;2448;48.086;10.862;2023-08-21T00:46:07;5.80;;;4.23;;
4867;SDS011;2448;48.086;10.862;2023-08-21T00:48:33;11.60;;;4.80;;
4867;SDS011;2448;48.086;10.862;2023-08-21T00:51:00;5.80;;;4.70;;
4867;SDS011;2448;48.086;10.862;2023-08-21T00:53:25;6.03;;;4.20;;
4867;SDS011;2448;48.086;10.862;2023-08-21T00:55:51;8.80;;;5.10;;
4867;SDS011;2448;48.086;10.862;2023-08-21T00:58:17;6.40;;;4.83;;
4867;SDS011;2448;48.086;10.862;2023-08-21T01:00:43;5.00;;;4.10;;
4867;SDS011;2448;48.086;10.862;2023-08-21T01:03:10;8.07;;;4.83;;
4867;SDS011;2448;48.086;10.862;2023-08-21T01:05:35;25.60;;;4.93;;
4867;SDS011;2448;48.086;10.862;2023-08-21T01:08:49;6.43;;;4.67;;
4867;SDS011;2448;48.086;10.862;2023-08-21T01:15:40;7.00;;;5.40;;
4867;SDS011;2448;48.086;10.862;2023-08-21T01:18:07;8.13;;;4.37;;
4867;SDS011;2448;48.086;10.862;2023-08-21T01:20:33;7.63;;;5.57;;
4867;SDS011;2448;48.086;10.862;2023-08-21T01:23:03;6.33;;;4.87;;
4867;SDS011;2448;48.086;10.862;2023-08-21T01:25:28;5.80;;;4.90;;
4867;SDS011;2448;48.086;10.862;2023-08-21T01:27:54;6.50;;;5.00;;
4867;SDS011;2448;48.086;10.862;2023-08-21T01:30:20;7.03;;;3.97;;
4867;SDS011;2448;48.086;10.862;2023-08-21T01:32:57;4.80;;;4.30;;
4867;SDS011;2448;48.086;10.862;2023-08-21T01:35:24;5.40;;;4.20;;
4867;SDS011;2448;48.086;10.862;2023-08-21T01:37:50;7.00;;;5.20;;
4867;SDS011;2448;48.086;10.862;2023-08-21T01:40:25;7.13;;;5.13;;
4867;SDS011;2448;48.086;10.862;2023-08-21T01:42:52;4.87;;;4.13;;
4867;SDS011;2448;48.086;10.862;2023-08-21T01:45:17;6.17;;;4.20;;
4867;SDS011;2448;48.086;10.862;2023-08-21T01:47:43;5.50;;;4.80;;
4867;SDS011;2448;48.086;10.862;2023-08-21T01:50:08;8.97;;;5.03;;
4867;SDS011;2448;48.086;10.862;2023-08-21T01:52:34;9.23;;;5.50;;
4867;SDS011;2448;48.086;10.862;2023-08-21T01:54:59;6.93;;;4.67;;
4867;SDS011;2448;48.086;10.862;2023-08-21T01:57:24;6.07;;;4.90;;
4867;SDS011;2448;48.086;10.862;2023-08-21T01:59:50;5.70;;;4.73;;
4867;SDS011;2448;48.086;10.862;2023-08-21T02:02:16;6.93;;;4.40;;
4867;SDS011;2448;48.086;10.862;2023-08-21T02:04:41;10.13;;;4.83;;
4867;SDS011;2448;48.086;10.862;2023-08-21T02:07:06;6.90;;;4.73;;
4867;SDS011;2448;48.086;10.862;2023-08-21T02:09:32;7.90;;;5.30;;
4867;SDS011;2448;48.086;10.862;2023-08-21T02:11:58;5.50;;;4.23;;
4867;SDS011;2448;48.086;10.862;2023-08-21T02:14:23;5.00;;;4.10;;
4867;SDS011;2448;48.086;10.862;2023-08-21T02:16:49;6.03;;;4.17;;
4867;SDS011;2448;48.086;10.862;2023-08-21T02:19:15;8.10;;;5.37;;
4867;SDS011;2448;48.086;10.862;2023-08-21T02:21:40;7.23;;;4.37;;
4867;SDS011;2448;48.086;10.862;2023-08-21T02:24:05;7.50;;;5.43;;
4867;SDS011;2448;48.086;10.862;2023-08-21T02:26:31;11.17;;;4.80;;
4867;SDS011;2448;48.086;10.862;2023-08-21T02:28:56;6.60;;;5.10;;
4867;SDS011;2448;48.086;10.862;2023-08-21T02:31:22;5.20;;;4.07;;
4867;SDS011;2448;48.086;10.862;2023-08-21T02:33:49;7.97;;;5.37;;
4867;SDS011;2448;48.086;10.862;2023-08-21T02:36:15;10.80;;;4.87;;
4867;SDS011;2448;48.086;10.862;2023-08-21T02:38:40;11.40;;;4.37;;
4867;SDS011;2448;48.086;10.862;2023-08-21T02:41:07;7.63;;;5.67;;
4867;SDS011;2448;48.086;10.862;2023-08-21T02:43:33;5.80;;;4.57;;
4867;SDS011;2448;48.086;10.862;2023-08-21T02:45:58;10.00;;;4.87;;
4867;SDS011;2448;48.086;10.862;2023-08-21T02:48:23;13.03;;;4.97;;
4867;SDS011;2448;48.086;10.862;2023-08-21T02:50:49;6.40;;;5.00;;
4867;SDS011;2448;48.086;10.862;2023-08-21T02:53:14;5.27;;;4.37;;
4867;SDS011;2448;48.086;10.862;2023-08-21T02:55:40;7.33;;;5.17;;
4867;SDS011;2448;48.086;10.862;2023-08-21T02:58:05;6.03;;;4.50;;
4867;SDS011;2448;48.086;10.862;2023-08-21T03:00:30;7.33;;;5.03;;
4867;SDS011;2448;48.086;10.862;2023-08-21T03:02:56;6.93;;;4.90;;
4867;SDS011;2448;48.086;10.862;2023-08-21T03:05:21;5.63;;;4.90;;
4867;SDS011;2448;48.086;10.862;2023-08-21T03:07:47;12.83;;;5.53;;
4867;SDS011;2448;48.086;10.862;2023-08-21T03:10:13;7.93;;;4.80;;
4867;SDS011;2448;48.086;10.862;2023-08-21T03:12:39;5.33;;;4.33;;
4867;SDS011;2448;48.086;10.862;2023-08-21T03:15:04;5.77;;;4.30;;
4867;SDS011;2448;48.086;10.862;2023-08-21T03:17:30;8.07;;;5.37;;
4867;SDS011;2448;48.086;10.862;2023-08-21T03:19:55;6.80;;;5.00;;
4867;SDS011;2448;48.086;10.862;2023-08-21T03:22:22;6.67;;;4.73;;
4867;SDS011;2448;48.086;10.862;2023-08-21T03:24:48;7.07;;;5.20;;
4867;SDS011;2448;48.086;10.862;2023-08-21T03:27:16;7.10;;;5.00;;
4867;SDS011;2448;48.086;10.862;2023-08-21T03:29:42;8.47;;;4.83;;
4867;SDS011;2448;48.086;10.862;2023-08-21T03:32:14;6.63;;;4.63;;
4867;SDS011;2448;48.086;10.862;2023-08-21T03:34:40;8.43;;;4.37;;
4867;SDS011;2448;48.086;10.862;2023-08-21T03:37:05;13.77;;;4.80;;
4867;SDS011;2448;48.086;10.862;2023-08-21T03:39:31;5.50;;;4.37;;
4867;SDS011;2448;48.086;10.862;2023-08-21T03:41:57;7.03;;;4.70;;
4867;SDS011;2448;48.086;10.862;2023-08-21T03:44:23;10.53;;;5.23;;
4867;SDS011;2448;48.086;10.862;2023-08-21T03:46:48;6.30;;;4.77;;
4867;SDS011;2448;48.086;10.862;2023-08-21T03:49:13;9.20;;;4.80;;
4867;SDS011;2448;48.086;10.862;2023-08-21T03:51:39;7.60;;;5.20;;
4867;SDS011;2448;48.086;10.862;2023-08-21T03:54:04;7.30;;;5.37;;
4867;SDS011;2448;48.086;10.862;2023-08-21T03:56:30;5.87;;;4.83;;
4867;SDS011;2448;48.086;10.862;2023-08-21T03:58:55;6.30;;;4.90;;
4867;SDS011;2448;48.086;10.862;2023-08-21T04:01:21;9.60;;;4.70;;
4867;SDS011;2448;48.086;10.862;2023-08-21T04:03:46;7.50;;;5.27;;
4867;SDS011;2448;48.086;10.862;2023-08-21T04:06:12;7.53;;;4.47;;
4867;SDS011;2448;48.086;10.862;2023-08-21T04:08:37;7.73;;;5.10;;
4867;SDS011;2448;48.086;10.862;2023-08-21T04:11:02;5.03;;;4.40;;
4867;SDS011;2448;48.086;10.862;2023-08-21T04:13:28;6.70;;;4.40;;
4867;SDS011;2448;48.086;10.862;2023-08-21T04:15:53;8.20;;;4.33;;
4867;SDS011;2448;48.086;10.862;2023-08-21T04:18:21;6.77;;;4.90;;
4867;SDS011;2448;48.086;10.862;2023-08-21T04:20:50;6.13;;;5.23;;
4867;SDS011;2448;48.086;10.862;2023-08-21T04:23:15;10.70;;;5.10;;
4867;SDS011;2448;48.086;10.862;2023-08-21T04:25:40;6.40;;;4.70;;
4867;SDS011;2448;48.086;10.862;2023-08-21T04:28:06;5.67;;;4.13;;
4867;SDS011;2448;48.086;10.862;2023-08-21T04:30:33;6.80;;;4.50;;
4867;SDS011;2448;48.086;10.862;2023-08-21T04:32:59;8.77;;;4.50;;
4867;SDS011;2448;48.086;10.862;2023-08-21T04:35:24;6.73;;;4.60;;
4867;SDS011;2448;48.086;10.862;2023-08-21T04:37:50;6.90;;;4.57;;
4867;SDS011;2448;48.086;10.862;2023-08-21T04:40:18;6.93;;;4.30;;
4867;SDS011;2448;48.086;10.862;2023-08-21T04:42:46;13.33;;;5.60;;
4867;SDS011;2448;48.086;10.862;2023-08-21T04:45:12;8.17;;;5.30;;
4867;SDS011;2448;48.086;10.862;2023-08-21T04:47:38;8.27;;;5.47;;
4867;SDS011;2448;48.086;10.862;2023-08-21T04:50:03;13.07;;;5.23;;
4867;SDS011;2448;48.086;10.862;2023-08-21T04:52:29;9.77;;;5.60;;
4867;SDS011;2448;48.086;10.862;2023-08-21T04:54:55;8.30;;;4.83;;
4867;SDS011;2448;48.086;10.862;2023-08-21T04:57:20;6.97;;;4.90;;
4867;SDS011;2448;48.086;10.862;2023-08-21T04:59:46;8.67;;;4.87;;
4867;SDS011;2448;48.086;10.862;2023-08-21T05:02:12;6.50;;;4.90;;
4867;SDS011;2448;48.086;10.862;2023-08-21T05:04:38;4.70;;;4.20;;
4867;SDS011;2448;48.086;10.862;2023-08-21T05:07:04;12.10;;;5.80;;
4867;SDS011;2448;48.086;10.862;2023-08-21T05:09:30;11.77;;;5.63;;
4867;SDS011;2448;48.086;10.862;2023-08-21T05:11:55;9.97;;;4.50;;
4867;SDS011;2448;48.086;10.862;2023-08-21T05:14:21;13.47;;;5.73;;
4867;SDS011;2448;48.086;10.862;2023-08-21T05:16:48;6.27;;;4.90;;
4867;SDS011;2448;48.086;10.862;2023-08-21T05:19:13;7.40;;;4.10;;
4867;SDS011;2448;48.086;10.862;2023-08-21T05:21:39;5.37;;;4.87;;
4867;SDS011;2448;48.086;10.862;2023-08-21T05:24:05;9.50;;;5.10;;
4867;SDS011;2448;48.086;10.862;2023-08-21T05:26:31;7.40;;;5.37;;
4867;SDS011;2448;48.086;10.862;2023-08-21T05:28:57;6.43;;;4.80;;
4867;SDS011;2448;48.086;10.862;2023-08-21T05:31:22;11.47;;;4.83;;
4867;SDS011;2448;48.086;10.862;2023-08-21T05:33:51;18.73;;;4.33;;
4867;SDS011;2448;48.086;10.862;2023-08-21T05:36:16;10.87;;;4.90;;
4867;SDS011;2448;48.086;10.862;2023-08-21T05:38:42;6.50;;;4.57;;
4867;SDS011;2448;48.086;10.862;2023-08-21T05:41:07;6.40;;;4.53;;
4867;SDS011;2448;48.086;10.862;2023-08-21T05:43:33;7.63;;;5.10;;
4867;SDS011;2448;48.086;10.862;2023-08-21T05:45:59;11.43;;;4.70;;
4867;SDS011;2448;48.086;10.862;2023-08-21T05:48:25;6.10;;;4.53;;
4867;SDS011;2448;48.086;10.862;2023-08-21T05:50:50;7.60;;;4.43;;
4867;SDS011;2448;48.086;10.862;2023-08-21T05:53:16;8.07;;;5.23;;
4867;SDS011;2448;48.086;10.862;2023-08-21T05:55:41;4.30;;;3.90;;
4867;SDS011;2448;48.086;10.862;2023-08-21T05:58:07;9.70;;;5.20;;
4867;SDS011;2448;48.086;10.862;2023-08-21T06:00:33;5.97;;;4.50;;
4867;SDS011;2448;48.086;10.862;2023-08-21T06:03:00;8.03;;;4.77;;
4867;SDS011;2448;48.086;10.862;2023-08-21T06:05:47;4.97;;;4.47;;
4867;SDS011;2448;48.086;10.862;2023-08-21T06:08:12;7.10;;;4.93;;
4867;SDS011;2448;48.086;10.862;2023-08-21T06:10:38;7.80;;;4.53;;
4867;SDS011;2448;48.086;10.862;2023-08-21T06:13:03;7.57;;;5.40;;
4867;SDS011;2448;48.086;10.862;2023-08-21T06:15:29;6.00;;;4.13;;
4867;SDS011;2448;48.086;10.862;2023-08-21T06:17:54;11.50;;;4.70;;
4867;SDS011;2448;48.086;10.862;2023-08-21T06:20:20;9.10;;;5.10;;
4867;SDS011;2448;48.086;10.862;2023-08-21T06:22:45;10.83;;;4.60;;
4867;SDS011;2448;48.086;10.862;2023-08-21T06:25:11;6.33;;;4.90;;
4867;SDS011;2448;48.086;10.862;2023-08-21T06:27:37;6.60;;;4.43;;
4867;SDS011;2448;48.086;10.862;2023-08-21T06:30:03;7.07;;;4.40;;
4867;SDS011;2448;48.086;10.862;2023-08-21T06:32:29;6.10;;;4.50;;
4867;SDS011;2448;48.086;10.862;2023-08-21T06:34:54;6.50;;;5.03;;
4867;SDS011;2448;48.086;10.862;2023-08-21T06:37:20;11.57;;;4.93;;
4867;SDS011;2448;48.086;10.862;2023-08-21T06:39:45;13.93;;;4.83;;
4867;SDS011;2448;48.086;10.862;2023-08-21T06:42:11;5.30;;;4.47;;
4867;SDS011;2448;48.086;10.862;2023-08-21T06:44:42;7.80;;;4.30;;
4867;SDS011;2448;48.086;10.862;2023-08-21T06:47:07;7.63;;;4.30;;
4867;SDS011;2448;48.086;10.862;2023-08-21T06:49:32;5.30;;;4.37;;
4867;SDS011;2448;48.086;10.862;2023-08-21T06:51:58;9.07;;;4.20;;
4867;SDS011;2448;48.086;10.862;2023-08-21T06:54:23;14.13;;;4.37;;
4867;SDS011;2448;48.086;10.862;2023-08-21T06:56:49;6.40;;;5.13;;
4867;SDS011;2448;48.086;10.862;2023-08-21T06:59:14;8.37;;;4.77;;
4867;SDS011;2448;48.086;10.862;2023-08-21T07:01:40;6.40;;;5.30;;
4867;SDS011;2448;48.086;10.862;2023-08-21T07:04:05;6.30;;;5.60;;
4867;SDS011;2448;48.086;10.862;2023-08-21T07:06:31;6.23;;;5.30;;
4867;SDS011;2448;48.086;10.862;2023-08-21T07:08:57;11.10;;;5.10;;
4867;SDS011;2448;48.086;10.862;2023-08-21T07:11:22;5.23;;;4.73;;
4867;SDS011;2448;48.086;10.862;2023-08-21T07:13:48;4.70;;;4.30;;
4867;SDS011;2448;48.086;10.862;2023-08-21T07:16:14;8.90;;;4.50;;
4867;SDS011;2448;48.086;10.862;2023-08-21T07:18:39;7.47;;;4.60;;
4867;SDS011;2448;48.086;10.862;2023-08-21T07:21:05;6.20;;;5.00;;
4867;SDS011;2448;48.086;10.862;2023-08-21T07:23:30;4.80;;;4.40;;
4867;SDS011;2448;48.086;10.862;2023-08-21T07:25:57;5.03;;;4.50;;
4867;SDS011;2448;48.086;10.862;2023-08-21T07:28:22;4.60;;;4.20;;
4867;SDS011;2448;48.086;10.862;2023-08-21T07:30:48;5.80;;;4.30;;
4867;SDS011;2448;48.086;10.862;2023-08-21T07:33:13;7.80;;;4.40;;
4867;SDS011;2448;48.086;10.862;2023-08-21T07:35:39;5.33;;;4.70;;
4867;SDS011;2448;48.086;10.862;2023-08-21T07:38:04;6.20;;;4.60;;
4867;SDS011;2448;48.086;10.862;2023-08-21T07:40:29;5.90;;;3.88;;
4867;SDS011;2448;48.086;10.862;2023-08-21T07:42:55;4.03;;;3.83;;
4867;SDS011;2448;48.086;10.862;2023-08-21T07:45:20;6.07;;;3.97;;
4867;SDS011;2448;48.086;10.862;2023-08-21T07:47:46;5.32;;;4.82;;
4867;SDS011;2448;48.086;10.862;2023-08-21T07:50:11;4.45;;;4.00;;
4867;SDS011;2448;48.086;10.862;2023-08-21T07:52:39;6.50;;;4.35;;
4867;SDS011;2448;48.086;10.862;2023-08-21T07:55:04;6.50;;;4.55;;
4867;SDS011;2448;48.086;10.862;2023-08-21T07:57:30;4.78;;;4.35;;
4867;SDS011;2448;48.086;10.862;2023-08-21T07:59:55;4.10;;;3.78;;
4867;SDS011;2448;48.086;10.862;2023-08-21T08:02:21;4.45;;;4.07;;
4867;SDS011;2448;48.086;10.862;2023-08-21T08:04:46;9.13;;;3.95;;
4867;SDS011;2448;48.086;10.862;2023-08-21T08:07:12;4.88;;;4.25;;
4867;SDS011;2448;48.086;10.862;2023-08-21T08:09:37;3.70;;;3.40;;
4867;SDS011;2448;48.086;10.862;2023-08-21T08:12:03;4.05;;;3.10;;
4867;SDS011;2448;48.086;10.862;2023-08-21T08:14:28;11.32;;;3.40;;
4867;SDS011;2448;48.086;10.862;2023-08-21T08:16:54;3.88;;;3.58;;
4867;SDS011;2448;48.086;10.862;2023-08-21T08:19:19;4.57;;;3.63;;
4867;SDS011;2448;48.086;10.862;2023-08-21T08:21:44;5.97;;;3.50;;
4867;SDS011;2448;48.086;10.862;2023-08-21T08:24:10;3.60;;;3.30;;
4867;SDS011;2448;48.086;10.862;2023-08-21T08:26:35;3.72;;;3.40;;
4867;SDS011;2448;48.086;10.862;2023-08-21T08:29:01;3.13;;;2.92;;
4867;SDS011;2448;48.086;10.862;2023-08-21T08:31:26;4.60;;;3.00;;
4867;SDS011;2448;48.086;10.862;2023-08-21T08:33:53;3.22;;;2.90;;
4867;SDS011;2448;48.086;10.862;2023-08-21T08:36:18;4.95;;;3.30;;
4867;SDS011;2448;48.086;10.862;2023-08-21T08:38:44;3.28;;;3.08;;
4867;SDS011;2448;48.086;10.862;2023-08-21T08:43:44;4.47;;;3.40;;
4867;SDS011;2448;48.086;10.862;2023-08-21T08:46:10;3.67;;;3.38;;
4867;SDS011;2448;48.086;10.862;2023-08-21T08:48:36;4.40;;;3.20;;
4867;SDS011;2448;48.086;10.862;2023-08-21T08:51:02;3.05;;;2.85;;
4867;SDS011;2448;48.086;10.862;2023-08-21T08:53:30;5.35;;;2.97;;
4867;SDS011;2448;48.086;10.862;2023-08-21T08:55:57;4.75;;;3.38;;
4867;SDS011;2448;48.086;10.862;2023-08-21T08:58:22;3.35;;;3.15;;
4867;SDS011;2448;48.086;10.862;2023-08-21T09:00:47;3.20;;;2.92;;
4867;SDS011;2448;48.086;10.862;2023-08-21T09:03:13;6.03;;;3.33;;
4867;SDS011;2448;48.086;10.862;2023-08-21T09:05:40;3.70;;;3.00;;
4867;SDS011;2448;48.086;10.862;2023-08-21T09:10:31;3.35;;;2.85;;
4867;SDS011;2448;48.086;10.862;2023-08-21T09:12:57;3.42;;;3.22;;
4867;SDS011;2448;48.086;10.862;2023-08-21T09:15:29;3.38;;;3.17;;
4867;SDS011;2448;48.086;10.862;2023-08-21T09:17:57;3.38;;;3.08;;
4867;SDS011;2448;48.086;10.862;2023-08-21T09:20:23;3.88;;;3.42;;
4867;SDS011;2448;48.086;10.862;2023-08-21T09:22:54;3.17;;;2.97;;
4867;SDS011;2448;48.086;10.862;2023-08-21T09:25:23;3.42;;;2.90;;
4867;SDS011;2448;48.086;10.862;2023-08-21T09:27:51;3.97;;;3.65;;
4867;SDS011;2448;48.086;10.862;2023-08-21T09:30:16;3.90;;;3.00;;
4867;SDS011;2448;48.086;10.862;2023-08-21T09:32:54;4.00;;;3.70;;
4867;SDS011;2448;48.086;10.862;2023-08-21T09:35:20;3.80;;;3.20;;
4867;SDS011;2448;48.086;10.862;2023-08-21T09:37:46;8.02;;;3.65;;
4867;SDS011;2448;48.086;10.862;2023-08-21T09:40:12;12.25;;;3.38;;
4867;SDS011;2448;48.086;10.862;2023-08-21T09:42:39;2.83;;;2.67;;
4867;SDS011;2448;48.086;10.862;2023-08-21T09:45:04;3.25;;;3.05;;
4867;SDS011;2448;48.086;10.862;2023-08-21T09:47:30;3.45;;;3.15;;
4867;SDS011;2448;48.086;10.862;2023-08-21T09:49:56;3.72;;;3.40;;
4867;SDS011;2448;48.086;10.862;2023-08-21T09:52:22;3.47;;;2.78;;
4867;SDS011;2448;48.086;10.862;2023-08-21T09:54:47;5.72;;;2.80;;
4867;SDS011;2448;48.086;10.862;2023-08-21T09:57:13;2.80;;;2.70;;
4867;SDS011;2448;48.086;10.862;2023-08-21T09:59:39;3.20;;;2.90;;
4867;SDS011;2448;48.086;10.862;2023-08-21T10:02:05;4.38;;;3.30;;
4867;SDS011;2448;48.086;10.862;2023-08-21T10:04:31;3.35;;;3.15;;
4867;SDS011;2448;48.086;10.862;2023-08-21T10:06:58;4.40;;;3.30;;
4867;SDS011;2448;48.086;10.862;2023-08-21T10:09:23;7.10;;;3.80;;
4867;SDS011;2448;48.086;10.862;2023-08-21T10:11:50;4.05;;;3.40;;
4867;SDS011;2448;48.086;10.862;2023-08-21T10:14:16;4.50;;;3.17;;
4867;SDS011;2448;48.086;10.862;2023-08-21T10:16:43;4.30;;;3.05;;
4867;SDS011;2448;48.086;10.862;2023-08-21T10:19:08;3.60;;;3.35;;
4867;SDS011;2448;48.086;10.862;2023-08-21T10:21:39;3.33;;;3.08;;
4867;SDS011;2448;48.086;10.862;2023-08-21T10:24:04;3.10;;;2.88;;
4867;SDS011;2448;48.086;10.862;2023-08-21T10:26:30;3.03;;;2.72;;
4867;SDS011;2448;48.086;10.862;2023-08-21T10:28:59;3.10;;;2.90;;
4867;SDS011;2448;48.086;10.862;2023-08-21T10:33:55;2.72;;;2.63;;
4867;SDS011;2448;48.086;10.862;2023-08-21T10:39:22;6.68;;;2.50;;
4867;SDS011;2448;48.086;10.862;2023-08-21T10:44:47;3.20;;;3.00;;
4867;SDS011;2448;48.086;10.862;2023-08-21T10:49:52;4.38;;;3.33;;
4867;SDS011;2448;48.086;10.862;2023-08-21T10:54:51;3.13;;;2.92;;
4867;SDS011;2448;48.086;10.862;2023-08-21T10:57:16;5.72;;;3.35;;
4867;SDS011;2448;48.086;10.862;2023-08-21T10:59:51;3.00;;;2.83;;
4867;SDS011;2448;48.086;10.862;2023-08-21T11:02:17;3.55;;;2.67;;
4867;SDS011;2448;48.086;10.862;2023-08-21T11:04:43;3.03;;;2.38;;
4867;SDS011;2448;48.086;10.862;2023-08-21T11:07:09;2.85;;;2.65;;
4867;SDS011;2448;48.086;10.862;2023-08-21T11:09:35;3.42;;;3.22;;
4867;SDS011;2448;48.086;10.862;2023-08-21T11:12:04;3.00;;;2.80;;
4867;SDS011;2448;48.086;10.862;2023-08-21T11:14:30;3.65;;;2.33;;
4867;SDS011;2448;48.086;10.862;2023-08-21T11:16:55;3.10;;;2.90;;
4867;SDS011;2448;48.086;10.862;2023-08-21T11:19:20;5.88;;;3.03;;
4867;SDS011;2448;48.086;10.862;2023-08-21T11:21:50;2.70;;;2.50;;
4867;SDS011;2448;48.086;10.862;2023-08-21T11:24:15;2.60;;;2.50;;
4867;SDS011;2448;48.086;10.862;2023-08-21T11:26:41;2.40;;;2.30;;
4867;SDS011;2448;48.086;10.862;2023-08-21T11:29:06;4.05;;;2.35;;
4867;SDS011;2448;48.086;10.862;2023-08-21T11:31:32;2.30;;;2.20;;
4867;SDS011;2448;48.086;10.862;2023-08-21T11:33:57;3.10;;;2.70;;
4867;SDS011;2448;48.086;10.862;2023-08-21T11:36:23;4.30;;;2.45;;
4867;SDS011;2448;48.086;10.862;2023-08-21T11:39:01;5.82;;;2.25;;
4867;SDS011;2448;48.086;10.862;2023-08-21T11:41:26;2.42;;;2.33;;
4867;SDS011;2448;48.086;10.862;2023-08-21T11:43:51;2.35;;;2.25;;
4867;SDS011;2448;48.086;10.862;2023-08-21T11:46:17;4.13;;;2.92;;
4867;SDS011;2448;48.086;10.862;2023-08-21T11:48:43;2.70;;;2.60;;
4867;SDS011;2448;48.086;10.862;2023-08-21T11:51:10;2.75;;;2.63;;
4867;SDS011;2448;48.086;10.862;2023-08-21T11:53:39;2.63;;;2.42;;
4867;SDS011;2448;48.086;10.862;2023-08-21T11:56:14;3.08;;;2.97;;
4867;SDS011;2448;48.086;10.862;2023-08-21T11:58:40;3.17;;;2.85;;
4867;SDS011;2448;48.086;10.862;2023-08-21T12:01:06;2.97;;;2.78;;
4867;SDS011;2448;48.086;10.862;2023-08-21T12:03:36;3.10;;;2.80;;
4867;SDS011;2448;48.086;10.862;2023-08-21T12:06:09;3.05;;;2.83;;
4867;SDS011;2448;48.086;10.862;2023-08-21T12:08:35;2.97;;;2.83;;
4867;SDS011;2448;48.086;10.862;2023-08-21T12:11:00;2.80;;;2.70;;
4867;SDS011;2448;48.086;10.862;2023-08-21T12:13:26;3.50;;;3.20;;
4867;SDS011;2448;48.086;10.862;2023-08-21T12:15:51;2.80;;;2.60;;
4867;SDS011;2448;48.086;10.862;2023-08-21T12:18:16;2.90;;;2.70;;
4867;SDS011;2448;48.086;10.862;2023-08-21T12:20:42;2.70;;;2.50;;
4867;SDS011;2448;48.086;10.862;2023-08-21T12:23:07;7.18;;;3.10;;
4867;SDS011;2448;48.086;10.862;2023-08-21T12:25:32;5.45;;;3.20;;
4867;SDS011;2448;48.086;10.862;2023-08-21T12:27:58;6.40;;;2.80;;
4867;SDS011;2448;48.086;10.862;2023-08-21T12:30:23;2.67;;;2.47;;
4867;SDS011;2448;48.086;10.862;2023-08-21T12:32:49;3.05;;;2.85;;
4867;SDS011;2448;48.086;10.862;2023-08-21T12:35:14;3.33;;;3.08;;
4867;SDS011;2448;48.086;10.862;2023-08-21T12:37:39;3.22;;;3.03;;
4867;SDS011;2448;48.086;10.862;2023-08-21T12:40:05;3.10;;;2.90;;
4867;SDS011;2448;48.086;10.862;2023-08-21T12:42:31;3.17;;;2.97;;
4867;SDS011;2448;48.086;10.862;2023-08-21T12:44:56;6.43;;;3.28;;
4867;SDS011;2448;48.086;10.862;2023-08-21T12:47:21;2.90;;;2.70;;
4867;SDS011;2448;48.086;10.862;2023-08-21T12:49:47;3.40;;;3.20;;
4867;SDS011;2448;48.086;10.862;2023-08-21T12:52:12;14.43;;;3.30;;
4867;SDS011;2448;48.086;10.862;2023-08-21T12:54:38;3.22;;;3.00;;
4867;SDS011;2448;48.086;10.862;2023-08-21T12:57:04;8.38;;;2.90;;
4867;SDS011;2448;48.086;10.862;2023-08-21T12:59:29;3.42;;;2.75;;
4867;SDS011;2448;48.086;10.862;2023-08-21T13:01:55;4.05;;;3.05;;
4867;SDS011;2448;48.086;10.862;2023-08-21T13:04:20;3.47;;;3.20;;
4867;SDS011;2448;48.086;10.862;2023-08-21T13:06:46;2.80;;;2.60;;
4867;SDS011;2448;48.086;10.862;2023-08-21T13:09:11;2.95;;;2.75;;
4867;SDS011;2448;48.086;10.862;2023-08-21T13:11:37;7.57;;;2.92;;
4867;SDS011;2448;48.086;10.862;2023-08-21T13:14:02;2.58;;;2.47;;
4867;SDS011;2448;48.086;10.862;2023-08-21T13:16:28;3.78;;;2.58;;
4867;SDS011;2448;48.086;10.862;2023-08-21T13:18:53;3.00;;;2.80;;
4867;SDS011;2448;48.086;10.862;2023-08-21T13:21:19;3.20;;;2.90;;
4867;SDS011;2448;48.086;10.862;2023-08-21T13:23:44;2.97;;;2.78;;
4867;SDS011;2448;48.086;10.862;2023-08-21T13:26:10;2.83;;;2.63;;
4867;SDS011;2448;48.086;10.862;2023-08-21T13:28:35;4.75;;;3.00;;
4867;SDS011;2448;48.086;10.862;2023-08-21T13:31:01;3.65;;;3.10;;
4867;SDS011;2448;48.086;10.862;2023-08-21T13:33:26;3.00;;;2.70;;
4867;SDS011;2448;48.086;10.862;2023-08-21T13:35:51;3.30;;;3.00;;
4867;SDS011;2448;48.086;10.862;2023-08-21T13:38:17;3.55;;;3.08;;
4867;SDS011;2448;48.086;10.862;2023-08-21T13:40:42;3.00;;;2.60;;
4867;SDS011;2448;48.086;10.862;2023-08-21T13:43:07;7.97;;;2.78;;
4867;SDS011;2448;48.086;10.862;2023-08-21T13:45:35;6.55;;;2.92;;
4867;SDS011;2448;48.086;10.862;2023-08-21T13:48:00;3.65;;;3.30;;
4867;SDS011;2448;48.086;10.862;2023-08-21T13:50:26;3.67;;;3.38;;
4867;SDS011;2448;48.086;10.862;2023-08-21T13:52:51;3.03;;;2.83;;
4867;SDS011;2448;48.086;10.862;2023-08-21T13:55:16;4.50;;;3.00;;
4867;SDS011;2448;48.086;10.862;2023-08-21T13:57:42;3.85;;;3.55;;
4867;SDS011;2448;48.086;10.862;2023-08-21T14:00:08;3.40;;;3.20;;
4867;SDS011;2448;48.086;10.862;2023-08-21T14:02:37;3.28;;;3.08;;
4867;SDS011;2448;48.086;10.862;2023-08-21T14:05:02;3.28;;;3.08;;
4867;SDS011;2448;48.086;10.862;2023-08-21T14:07:32;6.97;;;3.10;;
4867;SDS011;2448;48.086;10.862;2023-08-21T14:09:58;3.47;;;3.17;;
4867;SDS011;2448;48.086;10.862;2023-08-21T14:12:23;6.43;;;2.42;;
4867;SDS011;2448;48.086;10.862;2023-08-21T14:14:49;2.50;;;2.40;;
4867;SDS011;2448;48.086;10.862;2023-08-21T14:17:14;6.82;;;3.30;;
4867;SDS011;2448;48.086;10.862;2023-08-21T14:19:40;3.90;;;2.60;;
4867;SDS011;2448;48.086;10.862;2023-08-21T14:22:05;4.60;;;2.80;;
4867;SDS011;2448;48.086;10.862;2023-08-21T14:24:31;2.78;;;2.55;;
4867;SDS011;2448;48.086;10.862;2023-08-21T14:26:56;2.72;;;2.60;;
4867;SDS011;2448;48.086;10.862;2023-08-21T14:29:21;3.85;;;2.80;;
4867;SDS011;2448;48.086;10.862;2023-08-21T14:31:47;4.00;;;2.90;;
4867;SDS011;2448;48.086;10.862;2023-08-21T14:34:14;4.00;;;3.70;;
4867;SDS011;2448;48.086;10.862;2023-08-21T14:36:39;3.30;;;3.10;;
4867;SDS011;2448;48.086;10.862;2023-08-21T14:39:05;6.55;;;3.80;;
4867;SDS011;2448;48.086;10.862;2023-08-21T14:41:31;4.18;;;3.50;;
4867;SDS011;2448;48.086;10.862;2023-08-21T14:43:56;2.90;;;2.80;;
4867;SDS011;2448;48.086;10.862;2023-08-21T14:46:22;4.82;;;3.17;;
4867;SDS011;2448;48.086;10.862;2023-08-21T14:48:47;4.38;;;3.83;;
4867;SDS011;2448;48.086;10.862;2023-08-21T14:51:13;6.03;;;2.90;;
4867;SDS011;2448;48.086;10.862;2023-08-21T14:53:38;3.00;;;2.80;;
4867;SDS011;2448;48.086;10.862;2023-08-21T14:56:04;4.07;;;3.30;;
4867;SDS011;2448;48.086;10.862;2023-08-21T14:58:29;4.50;;;3.88;;
4867;SDS011;2448;48.086;10.862;2023-08-21T15:00:55;4.20;;;3.13;;
4867;SDS011;2448;48.086;10.862;2023-08-21T15:03:21;3.58;;;3.28;;
4867;SDS011;2448;48.086;10.862;2023-08-21T15:05:47;3.58;;;3.28;;
4867;SDS011;2448;48.086;10.862;2023-08-21T15:08:12;6.05;;;3.40;;
4867;SDS011;2448;48.086;10.862;2023-08-21T15:10:38;4.00;;;3.60;;
4867;SDS011;2448;48.086;10.862;2023-08-21T15:13:03;8.63;;;3.10;;
4867;SDS011;2448;48.086;10.862;2023-08-21T15:15:28;5.50;;;3.50;;